Stenlose, Denmark
Current Conditions -  °F | °C
As of 6:50 PM on Saturday 20 Dec 2014 (Local Time) from EKRK Reporting Station
Scattered Clouds Scattered Clouds  
Wind Chill: 29°   Ceiling: Unl
Heat Index: 39°   Visibility: 6mi
Dew Point: 34°   Wind: 22mph
Humidity: 81%   Direction: 300°WNW
Pressure: 29.53"   Gusts: 33mph
Location:  55.77°N, 12.2°E
Report Text: EKRK 201750Z AUTO 30019G29KT 9999NDV FEW025/// SCT032///04/01 Q1000
Loading
Personal Weather Stations






























Interactive Weather Map New forecast layout! Learn more

10-Day Weather Forecast

Advertisements
Track Severe Weather on mobile